createdAt,value
2023-01-17T00:00:50.915Z,97644.38
2023-01-17T00:03:18.606Z,97632.41
2023-01-17T00:06:03.778Z,97631.84
2023-01-17T00:08:50.379Z,97634.81
2023-01-17T00:11:18.698Z,97633.97
2023-01-17T00:13:46.398Z,97632.75
2023-01-17T00:16:14.363Z,97631.72
2023-01-17T00:19:02.513Z,97631.88
2023-01-17T00:21:47.831Z,97624.03
2023-01-17T00:24:34.376Z,97629.53
2023-01-17T00:27:13.729Z,97618.13
2023-01-17T00:29:40.275Z,97617.91
2023-01-17T00:32:06.918Z,97621.16
2023-01-17T00:34:33.462Z,97612.81
2023-01-17T00:37:00.141Z,97623.59
2023-01-17T00:39:28.060Z,97608.59
2023-01-17T00:41:54.672Z,97613.00
2023-01-17T00:44:39.700Z,97610.97
2023-01-17T00:47:25.153Z,97616.66
2023-01-17T00:50:10.495Z,97604.97
2023-01-17T00:52:55.883Z,97609.41
2023-01-17T00:55:42.516Z,97604.06
2023-01-17T00:58:28.335Z,97602.41
2023-01-17T01:01:13.829Z,97595.44
2023-01-17T01:03:58.875Z,97599.72
2023-01-17T01:06:44.444Z,97589.06
2023-01-17T01:09:29.778Z,97592.19
2023-01-17T01:12:16.460Z,97598.16
2023-01-17T01:15:01.918Z,97599.28
2023-01-17T01:17:47.203Z,97606.88
2023-01-17T01:20:32.593Z,97604.78
2023-01-17T01:23:22.538Z,97605.38
2023-01-17T01:26:07.809Z,97599.84
2023-01-17T01:28:54.381Z,97586.53
2023-01-17T01:31:39.731Z,97600.66
2023-01-17T01:34:07.489Z,97596.66
2023-01-17T01:36:35.133Z,97603.56
2023-01-17T01:39:02.814Z,97599.66
2023-01-17T01:41:30.608Z,97593.91
2023-01-17T01:43:59.651Z,97592.47
2023-01-17T01:46:32.786Z,97597.91
2023-01-17T01:49:03.735Z,97557.75
2023-01-17T01:51:35.776Z,97538.78
2023-01-17T01:54:08.810Z,97603.81
2023-01-17T01:56:38.011Z,97607.69
2023-01-17T01:59:10.730Z,97548.69
2023-01-17T02:01:38.734Z,97603.31
2023-01-17T02:04:09.851Z,97590.31
2023-01-17T02:06:40.755Z,97533.84
2023-01-17T02:09:11.389Z,97592.28
2023-01-17T02:11:41.093Z,97597.16
2023-01-17T02:14:15.513Z,97569.00
2023-01-17T02:16:54.988Z,97556.06
2023-01-17T02:20:03.945Z,97588.47
2023-01-17T02:23:07.459Z,97584.69
2023-01-17T02:26:05.765Z,97583.50
2023-01-17T02:28:49.769Z,97585.41
2023-01-17T02:31:27.937Z,97576.09
2023-01-17T02:34:04.583Z,97583.09
2023-01-17T02:36:37.624Z,97572.66
2023-01-17T02:39:10.763Z,97574.47
2023-01-17T02:41:41.644Z,97579.19
2023-01-17T02:44:09.768Z,97571.72
2023-01-17T02:46:46.760Z,97584.84
2023-01-17T02:49:15.416Z,97581.69
2023-01-17T02:52:01.835Z,97568.75
2023-01-17T02:55:04.573Z,97584.91
2023-01-17T02:57:57.560Z,97590.88
2023-01-17T03:00:31.161Z,97576.38
2023-01-17T03:03:08.361Z,97590.38
2023-01-17T03:05:44.050Z,97588.25
2023-01-17T03:08:13.544Z,97586.06
2023-01-17T03:10:42.751Z,97592.06
2023-01-17T03:13:10.427Z,97593.09
2023-01-17T03:15:39.598Z,97593.38
2023-01-17T03:18:13.649Z,97594.09
2023-01-17T03:20:41.543Z,97591.72
2023-01-17T03:23:09.268Z,97587.81
2023-01-17T03:25:37.007Z,97594.09
2023-01-17T03:28:05.219Z,97594.69
2023-01-17T03:30:32.945Z,97603.97
2023-01-17T03:33:00.624Z,97598.09
2023-01-17T03:35:29.721Z,97600.03
2023-01-17T03:37:57.461Z,97605.31
2023-01-17T03:40:25.088Z,97598.81
2023-01-17T03:42:52.822Z,97601.06
2023-01-17T03:45:20.929Z,97612.97
2023-01-17T03:47:48.617Z,97613.78
2023-01-17T03:50:16.622Z,97624.81
2023-01-17T03:52:45.700Z,97621.78
2023-01-17T03:55:13.368Z,97581.22
2023-01-17T03:57:41.124Z,97628.03
2023-01-17T04:00:10.046Z,97631.84
2023-01-17T04:02:38.035Z,97626.56
2023-01-17T04:05:06.487Z,97625.47
2023-01-17T04:07:34.153Z,97617.44
2023-01-17T04:10:03.199Z,97636.97
2023-01-17T04:12:30.872Z,97627.16
2023-01-17T04:14:58.629Z,97632.81
2023-01-17T04:17:26.614Z,97634.03
2023-01-17T04:19:54.823Z,97634.44
2023-01-17T04:22:22.579Z,97630.03
2023-01-17T04:24:50.329Z,97635.22
2023-01-17T04:27:19.803Z,97634.50
2023-01-17T04:29:47.480Z,97627.28
2023-01-17T04:32:15.788Z,97632.69
2023-01-17T04:34:43.589Z,97630.09
2023-01-17T04:37:11.291Z,97638.91
2023-01-17T04:39:38.946Z,97640.72
2023-01-17T04:42:06.782Z,97641.38
2023-01-17T04:44:35.818Z,97644.84
2023-01-17T04:47:03.781Z,97644.06
2023-01-17T04:49:31.507Z,97646.22
2023-01-17T04:51:59.540Z,97636.50
2023-01-17T04:54:27.350Z,97638.94
2023-01-17T04:56:55.141Z,97653.28
2023-01-17T04:59:22.902Z,97656.31
2023-01-17T05:01:51.940Z,97652.16
2023-01-17T05:04:19.859Z,97655.75
2023-01-17T05:06:47.562Z,97658.22
2023-01-17T05:09:15.337Z,97661.72
2023-01-17T05:11:46.144Z,97660.41
2023-01-17T05:14:13.884Z,97666.16
2023-01-17T05:16:41.775Z,97665.88
2023-01-17T05:19:10.844Z,97693.53
2023-01-17T05:21:38.614Z,97678.13
2023-01-17T05:24:06.995Z,97693.22
2023-01-17T05:26:34.677Z,97694.75
2023-01-17T05:29:02.425Z,97695.38
2023-01-17T05:31:30.154Z,97706.13
2023-01-17T05:33:57.847Z,97712.72
2023-01-17T05:36:27.000Z,97724.38
2023-01-17T05:38:54.697Z,97743.88
2023-01-17T05:41:22.471Z,97738.53
2023-01-17T05:43:50.245Z,97755.34
2023-01-17T05:46:18.151Z,97763.94
2023-01-17T05:48:45.968Z,97770.81
2023-01-17T05:51:13.679Z,97783.16
2023-01-17T05:53:42.847Z,97776.19
2023-01-17T05:56:10.538Z,97783.34
2023-01-17T05:58:40.034Z,97799.72
2023-01-17T06:01:08.240Z,97797.06
2023-01-17T06:03:36.244Z,97802.41
2023-01-17T06:06:04.043Z,97809.97
2023-01-17T06:08:31.731Z,97821.75
2023-01-17T06:11:01.028Z,97829.38
2023-01-17T06:13:28.698Z,97837.41
2023-01-17T06:15:57.670Z,97775.13
2023-01-17T06:18:25.491Z,97839.97
2023-01-17T06:20:55.105Z,97855.69
2023-01-17T06:23:24.097Z,97860.47
2023-01-17T06:25:52.172Z,97863.13
2023-01-17T06:28:23.017Z,97864.50
2023-01-17T06:30:50.893Z,97868.91
2023-01-17T06:33:18.724Z,97879.41
2023-01-17T06:35:50.446Z,97894.00
2023-01-17T06:38:18.683Z,97847.47
2023-01-17T06:40:46.650Z,97911.44
2023-01-17T06:43:14.516Z,97911.56
2023-01-17T06:45:43.769Z,97927.31
2023-01-17T06:48:11.580Z,97929.28
2023-01-17T06:50:39.356Z,97929.56
2023-01-17T06:53:08.896Z,97926.63
2023-01-17T06:55:40.221Z,97932.09
2023-01-17T06:58:08.091Z,97935.13
2023-01-17T07:00:36.247Z,97942.00
2023-01-17T07:03:05.939Z,97959.06
2023-01-17T07:05:36.517Z,97961.19
2023-01-17T07:08:04.556Z,97969.72
2023-01-17T07:10:32.268Z,97959.41
2023-01-17T07:13:01.107Z,97961.34
2023-01-17T07:15:28.944Z,97967.97
2023-01-17T07:17:56.653Z,97975.50
2023-01-17T07:20:25.727Z,97990.72
2023-01-17T07:22:53.458Z,97985.25
2023-01-17T07:25:21.160Z,97990.13
2023-01-17T07:27:49.037Z,98000.34
2023-01-17T07:30:17.304Z,98008.72
2023-01-17T07:32:45.061Z,98005.94
2023-01-17T07:35:12.727Z,98001.63
2023-01-17T07:37:41.844Z,98010.16
2023-01-17T07:40:11.325Z,98010.59
2023-01-17T07:42:39.001Z,98027.34
2023-01-17T07:45:08.391Z,98022.50
2023-01-17T07:47:36.102Z,98037.78
2023-01-17T07:50:04.407Z,98050.06
2023-01-17T07:52:32.168Z,98046.09
2023-01-17T07:55:01.214Z,98061.38
2023-01-17T07:57:28.933Z,98052.28
2023-01-17T07:59:56.625Z,98053.66
2023-01-17T08:02:24.859Z,98067.53
2023-01-17T08:04:52.659Z,98078.69
2023-01-17T08:07:20.386Z,98084.94
2023-01-17T08:09:50.150Z,98086.03
2023-01-17T08:12:19.365Z,98082.41
2023-01-17T08:14:47.051Z,98095.78
2023-01-17T08:17:16.455Z,98099.41
2023-01-17T08:19:44.763Z,98053.09
2023-01-17T08:22:13.251Z,98065.47
2023-01-17T08:24:41.881Z,98117.47
2023-01-17T08:27:10.009Z,98128.38
2023-01-17T08:29:42.140Z,98124.34
2023-01-17T08:32:10.018Z,98128.00
2023-01-17T08:34:37.806Z,98125.03
2023-01-17T08:37:05.524Z,98140.97
2023-01-17T08:39:33.281Z,98143.44
2023-01-17T08:42:01.103Z,98141.97
2023-01-17T08:44:28.832Z,98142.56
2023-01-17T08:46:58.060Z,98150.03
2023-01-17T08:49:25.860Z,98149.03
2023-01-17T08:51:53.638Z,98155.31
2023-01-17T08:54:22.902Z,98161.38
2023-01-17T08:56:52.749Z,98146.41
2023-01-17T08:59:20.773Z,98145.44
2023-01-17T09:01:48.728Z,98153.44
2023-01-17T09:04:18.026Z,98171.78
2023-01-17T09:06:48.216Z,98165.81
2023-01-17T09:09:16.979Z,98166.06
2023-01-17T09:11:44.697Z,98169.41
2023-01-17T09:14:13.311Z,98168.94
2023-01-17T09:16:41.205Z,98167.72
2023-01-17T09:19:10.179Z,98169.97
2023-01-17T09:21:39.378Z,98184.78
2023-01-17T09:24:07.689Z,98185.97
2023-01-17T09:26:35.531Z,98174.47
2023-01-17T09:29:03.351Z,98198.47
2023-01-17T09:31:31.496Z,98205.53
2023-01-17T09:33:59.938Z,98220.19
2023-01-17T09:36:31.880Z,98235.81
2023-01-17T09:39:01.889Z,98238.88
2023-01-17T09:41:31.770Z,98240.53
2023-01-17T09:44:06.673Z,98140.75
2023-01-17T09:46:40.458Z,98238.91
2023-01-17T09:49:12.972Z,98241.81
2023-01-17T09:51:42.176Z,98250.97
2023-01-17T09:54:22.214Z,98250.75
2023-01-17T09:56:59.741Z,98248.84
2023-01-17T09:59:35.793Z,98253.81
2023-01-17T10:02:16.782Z,98240.38
2023-01-17T10:05:03.475Z,98238.31
2023-01-17T10:07:44.006Z,98243.47
2023-01-17T10:10:28.710Z,98243.56
2023-01-17T10:13:02.536Z,98251.81
2023-01-17T10:15:43.769Z,98260.31
2023-01-17T10:18:34.250Z,98264.09
2023-01-17T10:21:08.374Z,98260.06
2023-01-17T10:23:59.561Z,98260.03
2023-01-17T10:26:28.790Z,98261.09
2023-01-17T10:29:01.864Z,98275.66
2023-01-17T10:31:34.942Z,98272.25
2023-01-17T10:34:10.808Z,98268.88
2023-01-17T10:36:44.136Z,98258.66
2023-01-17T10:39:18.612Z,98263.47
2023-01-17T10:41:55.260Z,98269.34
2023-01-17T10:44:31.513Z,98278.53
2023-01-17T10:47:08.026Z,98263.75
2023-01-17T10:49:38.756Z,98279.91
2023-01-17T10:52:14.523Z,98270.44
2023-01-17T10:54:56.452Z,98291.69
2023-01-17T10:57:27.983Z,98283.63
2023-01-17T11:00:00.785Z,98285.72
2023-01-17T11:02:32.902Z,98229.00
2023-01-17T11:05:05.588Z,98241.97
2023-01-17T11:07:33.543Z,98211.50
2023-01-17T11:10:01.268Z,98289.28
2023-01-17T11:12:33.636Z,98293.09
2023-01-17T11:15:06.272Z,98290.66
2023-01-17T11:17:37.275Z,98287.25
2023-01-17T11:20:19.918Z,98290.69
2023-01-17T11:23:03.204Z,98283.47
2023-01-17T11:25:33.904Z,98289.25
2023-01-17T11:28:06.481Z,98293.56
2023-01-17T11:30:34.693Z,98294.09
2023-01-17T11:33:06.218Z,98286.97
2023-01-17T11:35:36.474Z,98291.41
2023-01-17T11:38:20.058Z,98286.66
2023-01-17T11:40:49.349Z,98279.91
2023-01-17T11:43:24.143Z,98284.41
2023-01-17T11:46:03.821Z,98285.78
2023-01-17T11:48:39.523Z,98292.06
2023-01-17T11:51:20.321Z,98298.41
2023-01-17T11:53:49.095Z,98293.22
2023-01-17T11:56:23.484Z,98286.94
2023-01-17T11:58:52.858Z,98295.19
2023-01-17T12:01:33.997Z,98307.09
2023-01-17T12:04:32.077Z,98308.97
2023-01-17T12:07:17.910Z,98301.84
2023-01-17T12:09:56.450Z,98306.19
2023-01-17T12:12:52.153Z,98237.88
2023-01-17T12:15:33.028Z,98304.63
2023-01-17T12:18:19.002Z,98307.41
2023-01-17T12:20:54.511Z,98314.50
2023-01-17T12:23:54.602Z,98315.97
2023-01-17T12:26:32.562Z,98327.69
2023-01-17T12:29:17.654Z,98280.09
2023-01-17T12:31:58.396Z,98314.59
2023-01-17T12:34:30.662Z,98316.47
2023-01-17T12:37:04.089Z,98307.66
2023-01-17T12:39:37.179Z,98306.66
2023-01-17T12:42:09.930Z,98320.69
2023-01-17T12:44:50.148Z,98323.94
2023-01-17T12:47:21.527Z,98328.56
2023-01-17T12:49:57.732Z,98305.34
2023-01-17T12:52:38.435Z,98315.91
2023-01-17T12:55:11.645Z,98322.53
2023-01-17T12:57:45.112Z,98325.69
2023-01-17T13:00:19.537Z,98337.84
2023-01-17T13:02:54.068Z,98333.72
2023-01-17T13:05:26.164Z,98332.38
2023-01-17T13:07:59.505Z,98298.38
2023-01-17T13:10:35.351Z,98345.69
2023-01-17T13:13:14.169Z,98343.53
2023-01-17T13:15:44.134Z,98355.13
2023-01-17T13:18:17.257Z,98351.50
2023-01-17T13:21:04.746Z,98338.19
2023-01-17T13:23:45.508Z,98350.72
2023-01-17T13:26:22.054Z,98288.66
2023-01-17T13:28:57.013Z,98354.78
2023-01-17T13:31:39.334Z,98355.97
2023-01-17T13:34:41.049Z,98354.78
2023-01-17T13:37:27.917Z,98358.84
2023-01-17T13:40:11.679Z,98364.88
2023-01-17T13:42:50.757Z,98365.78
2023-01-17T13:45:20.403Z,98372.44
2023-01-17T13:47:48.227Z,98372.72
2023-01-17T13:50:49.778Z,98371.25
2023-01-17T13:53:57.446Z,98378.91
2023-01-17T13:56:36.998Z,98380.75
2023-01-17T13:59:20.494Z,98382.47
2023-01-17T14:01:53.032Z,98339.69
2023-01-17T14:04:21.606Z,98392.13
2023-01-17T14:06:57.849Z,98397.09
2023-01-17T14:09:38.411Z,98395.06
2023-01-17T14:12:08.090Z,98410.44
2023-01-17T14:14:48.037Z,98411.22
2023-01-17T14:17:50.496Z,98410.63
2023-01-17T14:20:49.342Z,98408.63
2023-01-17T14:23:51.426Z,98417.53
2023-01-17T14:26:34.089Z,98404.13
2023-01-17T14:29:34.956Z,98416.94
2023-01-17T14:32:05.861Z,98416.13
2023-01-17T14:34:34.020Z,98428.38
2023-01-17T14:37:08.072Z,98424.03
2023-01-17T14:39:47.219Z,98423.72
2023-01-17T14:42:17.495Z,98409.13
2023-01-17T14:44:53.891Z,98426.34
2023-01-17T14:47:22.452Z,98415.59
2023-01-17T14:49:50.324Z,98422.28
2023-01-17T14:52:19.379Z,98429.53
2023-01-17T14:54:52.456Z,98433.94
2023-01-17T14:57:29.138Z,98425.78
2023-01-17T15:00:14.332Z,98429.06
2023-01-17T15:02:44.205Z,98446.94
2023-01-17T15:05:15.242Z,98446.31
2023-01-17T15:07:45.815Z,98452.78
2023-01-17T15:10:17.846Z,98443.94
2023-01-17T15:12:47.539Z,98452.09
2023-01-17T15:15:28.612Z,98364.56
2023-01-17T15:18:10.148Z,98449.00
2023-01-17T15:20:38.825Z,98450.81
2023-01-17T15:23:06.957Z,98448.22
2023-01-17T15:25:36.249Z,98459.13
2023-01-17T15:28:04.634Z,98458.44
2023-01-17T15:30:32.435Z,98465.09
2023-01-17T15:33:00.161Z,98472.66
2023-01-17T15:35:28.352Z,98463.44
2023-01-17T15:37:58.293Z,98471.91
2023-01-17T15:40:27.955Z,98475.72
2023-01-17T15:43:00.954Z,98476.66
2023-01-17T15:45:30.621Z,98470.78
2023-01-17T15:47:59.173Z,98473.59
2023-01-17T15:50:31.042Z,98483.94
2023-01-17T15:53:01.454Z,98489.69
2023-01-17T15:55:32.497Z,98494.50
2023-01-17T15:58:01.986Z,98494.91
2023-01-17T16:00:37.726Z,98489.19
2023-01-17T16:03:22.389Z,98494.91
2023-01-17T16:05:51.448Z,98492.69
2023-01-17T16:08:34.305Z,98505.09
2023-01-17T16:11:06.110Z,98508.25
2023-01-17T16:13:37.847Z,98517.91
2023-01-17T16:16:26.960Z,98513.88
2023-01-17T16:19:00.262Z,98517.50
2023-01-17T16:21:29.717Z,98522.16
2023-01-17T16:23:58.040Z,98519.88
2023-01-17T16:26:26.070Z,98541.25
2023-01-17T16:28:55.252Z,98536.88
2023-01-17T16:31:23.051Z,98540.44
2023-01-17T16:33:51.636Z,98539.44
2023-01-17T16:36:21.178Z,98559.81
2023-01-17T16:38:50.878Z,98541.16
2023-01-17T16:41:19.052Z,98566.69
2023-01-17T16:43:48.192Z,98463.78
2023-01-17T16:46:21.651Z,98563.66
2023-01-17T16:48:49.451Z,98567.50
2023-01-17T16:51:17.222Z,98561.53
2023-01-17T16:53:45.032Z,98577.00
2023-01-17T16:56:15.237Z,98538.16
2023-01-17T16:58:43.455Z,98569.47
2023-01-17T17:01:12.263Z,98579.84
2023-01-17T17:03:41.628Z,98580.31
2023-01-17T17:06:09.799Z,98585.03
2023-01-17T17:08:39.774Z,98598.28
2023-01-17T17:11:14.039Z,98599.22
2023-01-17T17:13:43.256Z,98602.28
2023-01-17T17:16:15.927Z,98613.56
2023-01-17T17:18:46.419Z,98616.31
2023-01-17T17:21:14.630Z,98625.31
2023-01-17T17:23:42.563Z,98629.06
2023-01-17T17:26:10.366Z,98612.44
2023-01-17T17:28:38.238Z,98620.69
2023-01-17T17:31:08.299Z,98633.00
2023-01-17T17:33:36.950Z,98616.78
2023-01-17T17:36:11.086Z,98640.78
2023-01-17T17:38:50.858Z,98632.81
2023-01-17T17:41:20.417Z,98637.41
2023-01-17T17:43:48.450Z,98640.63
2023-01-17T17:46:16.356Z,98638.00
2023-01-17T17:48:44.173Z,98649.94
2023-01-17T17:51:25.196Z,98649.47
2023-01-17T17:53:54.574Z,98654.22
2023-01-17T17:56:22.962Z,98656.28
2023-01-17T17:58:51.317Z,98660.78
2023-01-17T18:01:19.076Z,98657.06
2023-01-17T18:03:46.886Z,98672.72
2023-01-17T18:06:17.487Z,98674.72
2023-01-17T18:08:47.123Z,98685.28
2023-01-17T18:11:18.702Z,98685.72
2023-01-17T18:13:50.344Z,98678.22
2023-01-17T18:16:21.308Z,98676.25
2023-01-17T18:18:51.328Z,98673.16
2023-01-17T18:21:23.731Z,98686.47
2023-01-17T18:23:54.631Z,98705.41
2023-01-17T18:26:24.742Z,98694.06
2023-01-17T18:28:53.260Z,98711.34
2023-01-17T18:31:21.411Z,98713.91
2023-01-17T18:33:49.338Z,98704.19
2023-01-17T18:36:17.137Z,98713.22
2023-01-17T18:38:46.851Z,98694.53
2023-01-17T18:41:18.678Z,98709.94
2023-01-17T18:43:46.578Z,98727.22
2023-01-17T18:46:15.865Z,98723.16
2023-01-17T18:48:43.900Z,98724.03
2023-01-17T18:51:13.333Z,98724.41
2023-01-17T18:53:42.626Z,98721.34
2023-01-17T18:56:12.886Z,98695.16
2023-01-17T18:58:43.784Z,98644.13
2023-01-17T19:01:13.835Z,98722.38
2023-01-17T19:03:43.343Z,98677.69
2023-01-17T19:06:14.459Z,98708.06
2023-01-17T19:08:43.207Z,98728.19
2023-01-17T19:11:11.544Z,98702.13
2023-01-17T19:13:40.547Z,98728.97
2023-01-17T19:16:14.810Z,98712.59
2023-01-17T19:18:43.299Z,98728.75
2023-01-17T19:21:13.858Z,98728.41
2023-01-17T19:23:43.296Z,98738.16
2023-01-17T19:26:12.204Z,98726.09
2023-01-17T19:28:40.803Z,98734.47
2023-01-17T19:31:12.904Z,98732.91
2023-01-17T19:33:43.620Z,98730.34
2023-01-17T19:36:16.078Z,98706.22
2023-01-17T19:38:52.292Z,98722.34
2023-01-17T19:41:30.424Z,98727.16
2023-01-17T19:43:59.432Z,98739.56
2023-01-17T19:46:29.215Z,98748.47
2023-01-17T19:48:58.019Z,98738.91
2023-01-17T19:51:26.758Z,98731.84
2023-01-17T19:53:54.862Z,98744.09
2023-01-17T19:56:24.496Z,98755.97
2023-01-17T19:58:53.063Z,98754.03
2023-01-17T20:01:24.019Z,98749.19
2023-01-17T20:03:54.554Z,98742.22
2023-01-17T20:06:25.779Z,98756.84
2023-01-17T20:08:53.749Z,98753.78
2023-01-17T20:11:23.206Z,98755.38
2023-01-17T20:13:54.973Z,98741.25
2023-01-17T20:16:24.025Z,98757.28
2023-01-17T20:18:53.186Z,98759.22
2023-01-17T20:21:22.875Z,98742.44
2023-01-17T20:23:51.970Z,98732.25
2023-01-17T20:26:23.131Z,98763.13
2023-01-17T20:28:52.373Z,98745.22
2023-01-17T20:31:21.676Z,98755.63
2023-01-17T20:33:51.319Z,98761.97
2023-01-17T20:36:22.551Z,98757.69
2023-01-17T20:38:50.795Z,98755.97
2023-01-17T20:41:20.193Z,98748.66
2023-01-17T20:43:50.330Z,98717.84
2023-01-17T20:46:19.564Z,98756.22
2023-01-17T20:48:48.850Z,98749.31
2023-01-17T20:51:17.160Z,98741.88
2023-01-17T20:53:47.211Z,98761.56
2023-01-17T20:56:17.202Z,98750.84
2023-01-17T20:58:44.960Z,98748.47
2023-01-17T21:01:19.117Z,98723.41
2023-01-17T21:03:47.990Z,98741.13
2023-01-17T21:06:16.102Z,98702.13
2023-01-17T21:08:47.214Z,98760.91
2023-01-17T21:11:17.524Z,98762.28
2023-01-17T21:13:45.507Z,98678.06
2023-01-17T21:16:14.242Z,98743.91
2023-01-17T21:18:42.732Z,98752.56
2023-01-17T21:21:13.356Z,98760.16
2023-01-17T21:23:42.662Z,98747.78
2023-01-17T21:26:14.047Z,98763.03
2023-01-17T21:28:43.327Z,98774.19
2023-01-17T21:31:20.485Z,98728.97
2023-01-17T21:33:48.583Z,98764.41
2023-01-17T21:36:16.927Z,98783.72
2023-01-17T21:38:49.585Z,98780.59
2023-01-17T21:41:19.315Z,98790.94
2023-01-17T21:43:47.349Z,98787.81
2023-01-17T21:46:15.640Z,98784.00
2023-01-17T21:48:44.453Z,98780.19
2023-01-17T21:51:12.310Z,98794.31
2023-01-17T21:53:40.782Z,98804.72
2023-01-17T21:56:29.579Z,98800.84
2023-01-17T21:58:59.969Z,98806.75
2023-01-17T22:01:31.031Z,98785.88
2023-01-17T22:04:01.085Z,98808.53
2023-01-17T22:06:30.642Z,98808.75
2023-01-17T22:08:58.618Z,98831.78
2023-01-17T22:11:30.312Z,98741.59
2023-01-17T22:14:00.352Z,98821.75
2023-01-17T22:16:28.201Z,98825.97
2023-01-17T22:18:56.342Z,98841.47
2023-01-17T22:21:25.500Z,98828.31
2023-01-17T22:23:54.572Z,98832.63
2023-01-17T22:26:24.188Z,98862.19
2023-01-17T22:28:51.943Z,98843.03
2023-01-17T22:31:23.562Z,98852.50
2023-01-17T22:33:54.379Z,98862.75
2023-01-17T22:36:22.608Z,98871.53
2023-01-17T22:38:50.624Z,98871.06
2023-01-17T22:41:20.975Z,98883.13
2023-01-17T22:43:50.205Z,98830.50
2023-01-17T22:46:22.197Z,98863.28
2023-01-17T22:48:50.287Z,98873.97
2023-01-17T22:51:20.172Z,98864.66
2023-01-17T22:53:49.955Z,98871.38
2023-01-17T22:56:21.373Z,98879.09
2023-01-17T22:58:50.271Z,98872.91
2023-01-17T23:01:19.867Z,98789.72
2023-01-17T23:03:52.708Z,98880.44
2023-01-17T23:06:22.831Z,98873.75
2023-01-17T23:08:52.287Z,98863.53
2023-01-17T23:11:41.057Z,98873.56
2023-01-17T23:14:13.011Z,98885.16
2023-01-17T23:17:00.159Z,98888.16
2023-01-17T23:19:31.435Z,98894.09
2023-01-17T23:22:22.252Z,98899.22
2023-01-17T23:24:52.209Z,98890.16
2023-01-17T23:27:40.089Z,98866.47
2023-01-17T23:30:11.481Z,98896.88
2023-01-17T23:32:39.603Z,98906.22
2023-01-17T23:35:09.035Z,98898.78
2023-01-17T23:37:54.136Z,98899.72
2023-01-17T23:40:22.031Z,98903.88
2023-01-17T23:43:07.579Z,98887.50
2023-01-17T23:45:36.615Z,98911.59
2023-01-17T23:48:05.716Z,98859.28
2023-01-17T23:50:35.147Z,98899.34
2023-01-17T23:53:06.882Z,98913.66
2023-01-17T23:55:36.191Z,98906.09
2023-01-17T23:58:03.973Z,98892.94
